createdAt,value
2019-02-19T00:00:53.939Z,11.83
2019-02-19T00:03:35.033Z,13.50
2019-02-19T00:06:16.223Z,10.03
2019-02-19T00:08:57.558Z,12.17
2019-02-19T00:11:38.569Z,10.20
2019-02-19T00:14:19.760Z,11.20
2019-02-19T00:17:00.225Z,14.20
2019-02-19T00:19:40.942Z,11.17
2019-02-19T00:22:21.407Z,9.43
2019-02-19T00:25:02.176Z,11.87
2019-02-19T00:27:42.945Z,11.43
2019-02-19T00:30:23.901Z,10.93
2019-02-19T00:33:04.687Z,12.03
2019-02-19T00:35:45.000Z,11.33
2019-02-19T00:38:25.827Z,8.87
2019-02-19T00:41:06.500Z,11.23
2019-02-19T00:43:47.185Z,12.30
2019-02-19T00:46:27.751Z,14.13
2019-02-19T00:49:08.350Z,12.23
2019-02-19T00:51:48.947Z,13.27
2019-02-19T00:54:29.322Z,13.20
2019-02-19T00:57:10.200Z,9.70
2019-02-19T00:59:50.607Z,10.83
2019-02-19T01:02:31.222Z,12.47
2019-02-19T01:05:12.198Z,17.23
2019-02-19T01:07:52.557Z,16.60
2019-02-19T01:10:33.365Z,10.63
2019-02-19T01:13:13.981Z,11.27
2019-02-19T01:15:54.669Z,13.00
2019-02-19T01:18:35.580Z,12.30
2019-02-19T01:21:16.234Z,11.20
2019-02-19T01:23:57.416Z,12.03
2019-02-19T01:26:37.970Z,11.20
2019-02-19T01:29:18.974Z,11.20
2019-02-19T01:32:00.202Z,11.57
2019-02-19T01:34:40.746Z,12.93
2019-02-19T01:37:21.260Z,11.10
2019-02-19T01:40:02.026Z,15.80
2019-02-19T01:42:42.558Z,11.57
2019-02-19T01:45:23.026Z,15.70
2019-02-19T01:48:03.808Z,10.13
2019-02-19T01:50:44.158Z,12.80
2019-02-19T01:53:24.894Z,10.70
2019-02-19T01:56:05.250Z,10.90
2019-02-19T01:58:45.690Z,10.27
2019-02-19T02:01:26.456Z,14.20
2019-02-19T02:04:07.008Z,11.37
2019-02-19T02:06:47.602Z,12.13
2019-02-19T02:09:28.414Z,13.20
2019-02-19T02:12:09.619Z,10.00
2019-02-19T02:14:50.154Z,11.77
2019-02-19T02:17:30.862Z,11.30
2019-02-19T02:20:11.607Z,9.63
2019-02-19T02:22:52.060Z,12.90
2019-02-19T02:25:32.686Z,12.80
2019-02-19T02:28:13.662Z,12.30
2019-02-19T02:30:54.886Z,11.10
2019-02-19T02:33:35.322Z,11.17
2019-02-19T02:36:16.004Z,12.60
2019-02-19T02:38:56.678Z,10.90
2019-02-19T02:41:37.160Z,15.10
2019-02-19T02:44:17.782Z,11.30
2019-02-19T02:46:58.390Z,11.50
2019-02-19T02:49:38.965Z,14.77
2019-02-19T02:52:19.417Z,11.70
2019-02-19T02:54:59.996Z,13.80
2019-02-19T02:57:40.578Z,11.67
2019-02-19T03:00:21.034Z,10.43
2019-02-19T03:03:01.520Z,10.40
2019-02-19T03:05:48.496Z,13.50
2019-02-19T03:08:29.494Z,12.60
2019-02-19T03:11:10.508Z,12.97
2019-02-19T03:13:51.305Z,10.20
2019-02-19T03:16:31.666Z,11.40
2019-02-19T03:19:12.159Z,10.17
2019-02-19T03:21:52.858Z,12.60
2019-02-19T03:24:33.260Z,12.27
2019-02-19T03:27:13.881Z,13.70
2019-02-19T03:29:54.962Z,13.80
2019-02-19T03:32:35.570Z,14.57
2019-02-19T03:35:16.386Z,13.20
2019-02-19T03:37:56.862Z,16.53
2019-02-19T03:40:37.799Z,12.37
2019-02-19T03:43:18.967Z,12.43
2019-02-19T03:45:59.419Z,15.70
2019-02-19T03:48:40.423Z,15.50
2019-02-19T03:51:20.893Z,12.60
2019-02-19T03:54:01.674Z,17.50
2019-02-19T03:56:42.607Z,14.70
2019-02-19T03:59:23.310Z,14.33
2019-02-19T04:02:04.170Z,15.50
2019-02-19T04:04:45.157Z,14.40
2019-02-19T04:07:25.683Z,19.03
2019-02-19T04:10:06.434Z,14.80
2019-02-19T04:12:35.189Z,20.80
2019-02-19T04:15:24.979Z,19.77
2019-02-19T04:18:13.368Z,20.63
2019-02-19T04:20:54.223Z,15.63
2019-02-19T04:23:34.567Z,16.73
2019-02-19T04:26:15.371Z,18.53
2019-02-19T04:28:56.085Z,16.33
2019-02-19T04:31:36.715Z,18.40
2019-02-19T04:34:17.385Z,15.03
2019-02-19T04:36:57.988Z,21.80
2019-02-19T04:39:39.459Z,18.10
2019-02-19T04:42:20.054Z,15.03
2019-02-19T04:45:00.982Z,15.77
2019-02-19T04:47:42.134Z,17.00
2019-02-19T04:50:22.844Z,16.13
2019-02-19T04:53:03.740Z,14.50
2019-02-19T04:55:44.161Z,19.60
2019-02-19T04:58:25.000Z,15.77
2019-02-19T05:01:05.778Z,13.87
2019-02-19T05:03:46.313Z,13.60
2019-02-19T05:06:27.225Z,10.47
2019-02-19T05:09:08.023Z,17.50
2019-02-19T05:11:48.646Z,14.00
2019-02-19T05:14:29.322Z,12.53
2019-02-19T05:17:09.936Z,18.67
2019-02-19T05:19:50.326Z,12.40
2019-02-19T05:22:30.998Z,12.33
2019-02-19T05:25:10.081Z,11.83
2019-02-19T05:27:58.724Z,12.60
2019-02-19T05:30:46.736Z,14.90
2019-02-19T05:33:34.705Z,14.57
2019-02-19T05:36:22.706Z,14.03
2019-02-19T05:39:10.682Z,13.13
2019-02-19T05:41:58.678Z,14.80
2019-02-19T05:44:46.942Z,14.67
2019-02-19T05:47:35.005Z,14.73
2019-02-19T05:50:24.646Z,13.80
2019-02-19T05:53:12.610Z,12.27
2019-02-19T05:56:00.668Z,15.47
2019-02-19T05:58:48.915Z,15.37
2019-02-19T06:01:37.494Z,13.57
2019-02-19T06:04:25.514Z,15.80
2019-02-19T06:07:13.570Z,12.87
2019-02-19T06:10:01.890Z,21.20
2019-02-19T06:12:50.394Z,18.40
2019-02-19T06:15:38.396Z,16.50
2019-02-19T06:18:26.376Z,17.77
2019-02-19T06:21:06.997Z,19.43
2019-02-19T06:23:47.851Z,17.07
2019-02-19T06:26:29.104Z,22.90
2019-02-19T06:29:09.348Z,20.20
2019-02-19T06:31:50.275Z,18.47
2019-02-19T06:34:30.627Z,19.23
2019-02-19T06:37:11.269Z,18.07
2019-02-19T06:39:51.879Z,17.57
2019-02-19T06:42:32.431Z,20.63
2019-02-19T06:45:13.389Z,16.30
2019-02-19T06:47:54.314Z,17.57
2019-02-19T06:50:34.853Z,23.40
2019-02-19T06:53:15.638Z,25.80
2019-02-19T06:55:56.463Z,24.10
2019-02-19T06:58:36.816Z,31.17
2019-02-19T07:01:20.755Z,28.17
2019-02-19T07:04:06.032Z,33.07
2019-02-19T07:06:47.235Z,34.83
2019-02-19T07:09:27.590Z,31.07
2019-02-19T07:12:08.542Z,35.93
2019-02-19T07:14:49.459Z,39.90
2019-02-19T07:17:29.847Z,38.83
2019-02-19T07:20:10.561Z,41.07
2019-02-19T07:22:51.501Z,36.67
2019-02-19T07:25:31.906Z,34.73
2019-02-19T07:28:13.110Z,40.10
2019-02-19T07:30:53.793Z,40.53
2019-02-19T07:33:34.339Z,34.23
2019-02-19T07:36:15.366Z,36.80
2019-02-19T07:38:56.516Z,35.47
2019-02-19T07:41:36.914Z,30.43
2019-02-19T07:44:17.736Z,34.47
2019-02-19T07:46:58.735Z,34.43
2019-02-19T07:49:39.615Z,37.33
2019-02-19T07:52:20.335Z,36.33
2019-02-19T07:55:00.748Z,30.77
2019-02-19T07:57:42.895Z,32.47
2019-02-19T08:00:23.833Z,33.80
2019-02-19T08:03:05.023Z,33.07
2019-02-19T08:05:46.490Z,35.77
2019-02-19T08:08:27.398Z,33.10
2019-02-19T08:11:07.785Z,27.43
2019-02-19T08:13:48.716Z,33.60
2019-02-19T08:16:28.990Z,30.20
2019-02-19T08:19:09.802Z,41.23
2019-02-19T08:21:50.350Z,33.63
2019-02-19T08:24:31.158Z,35.50
2019-02-19T08:27:12.018Z,30.73
2019-02-19T08:29:52.630Z,33.77
2019-02-19T08:32:33.614Z,40.40
2019-02-19T08:35:14.337Z,40.63
2019-02-19T08:37:55.635Z,36.97
2019-02-19T08:40:36.718Z,35.10
2019-02-19T08:43:17.414Z,27.60
2019-02-19T08:45:57.798Z,30.00
2019-02-19T08:48:38.810Z,35.30
2019-02-19T08:51:19.362Z,36.30
2019-02-19T08:54:00.276Z,32.80
2019-02-19T08:56:41.037Z,28.47
2019-02-19T08:59:22.074Z,33.60
2019-02-19T09:02:02.810Z,33.90
2019-02-19T09:04:43.578Z,28.43
2019-02-19T09:07:24.094Z,27.23
2019-02-19T09:10:04.742Z,27.07
2019-02-19T09:12:45.532Z,27.90
2019-02-19T09:15:26.222Z,25.53
2019-02-19T09:18:06.979Z,23.70
2019-02-19T09:20:46.010Z,25.20
2019-02-19T09:23:33.999Z,24.60
2019-02-19T09:26:21.977Z,25.27
2019-02-19T09:29:09.973Z,27.77
2019-02-19T09:31:57.957Z,25.67
2019-02-19T09:34:45.957Z,23.33
2019-02-19T09:37:33.984Z,23.60
2019-02-19T09:40:22.263Z,22.10
2019-02-19T09:43:10.242Z,23.83
2019-02-19T09:45:59.057Z,25.63
2019-02-19T09:48:47.946Z,27.97
2019-02-19T09:51:35.956Z,29.40
2019-02-19T09:54:23.990Z,25.57
2019-02-19T10:00:19.223Z,29.03
2019-02-19T10:03:07.218Z,23.97
2019-02-19T10:05:55.202Z,33.70
2019-02-19T10:08:43.263Z,25.87
2019-02-19T10:11:31.603Z,26.80
2019-02-19T10:14:19.606Z,25.50
2019-02-19T10:17:07.610Z,26.83
2019-02-19T10:19:55.604Z,27.80
2019-02-19T10:22:36.422Z,25.70
2019-02-19T10:25:16.978Z,27.87
2019-02-19T10:27:57.640Z,30.60
2019-02-19T10:30:38.312Z,27.47
2019-02-19T10:33:19.182Z,24.70
2019-02-19T10:35:59.965Z,25.77
2019-02-19T10:38:40.698Z,29.13
2019-02-19T10:41:21.259Z,27.03
2019-02-19T10:44:02.038Z,34.80
2019-02-19T10:46:43.089Z,34.53
2019-02-19T10:49:23.670Z,29.17
2019-02-19T10:52:04.121Z,28.40
2019-02-19T10:54:44.830Z,27.80
2019-02-19T10:57:25.609Z,29.80
2019-02-19T11:00:06.589Z,24.07
2019-02-19T11:02:46.946Z,29.30
2019-02-19T11:05:27.553Z,30.00
2019-02-19T11:08:08.738Z,32.77
2019-02-19T11:10:47.815Z,28.87
2019-02-19T11:13:35.838Z,30.03
2019-02-19T11:16:23.822Z,30.13
2019-02-19T11:19:12.186Z,29.03
2019-02-19T11:21:52.903Z,25.60
2019-02-19T11:24:34.071Z,25.57
2019-02-19T11:27:16.698Z,28.77
2019-02-19T11:29:57.978Z,26.67
2019-02-19T11:32:38.582Z,32.60
2019-02-19T11:35:19.153Z,27.43
2019-02-19T11:38:00.015Z,22.40
2019-02-19T11:40:40.637Z,26.67
2019-02-19T11:43:21.176Z,21.73
2019-02-19T11:46:01.862Z,25.37
2019-02-19T11:48:42.806Z,23.80
2019-02-19T11:51:23.424Z,24.00
2019-02-19T11:54:04.639Z,29.03
2019-02-19T11:56:45.695Z,26.90
2019-02-19T11:59:26.106Z,23.87
2019-02-19T12:02:11.399Z,24.80
2019-02-19T12:04:52.146Z,22.90
2019-02-19T12:07:33.033Z,32.20
2019-02-19T12:10:14.234Z,26.63
2019-02-19T12:12:55.118Z,28.17
2019-02-19T12:15:35.745Z,28.40
2019-02-19T12:18:16.399Z,23.00
2019-02-19T12:20:57.650Z,25.60
2019-02-19T12:23:38.113Z,30.30
2019-02-19T12:26:18.673Z,25.13
2019-02-19T12:28:59.190Z,24.07
2019-02-19T12:31:39.812Z,26.10
2019-02-19T12:34:20.588Z,26.23
2019-02-19T12:37:01.460Z,24.20
2019-02-19T12:39:42.277Z,25.03
2019-02-19T12:42:22.838Z,22.60
2019-02-19T12:45:03.510Z,26.57
2019-02-19T12:47:44.305Z,29.97
2019-02-19T12:50:25.538Z,24.70
2019-02-19T12:53:06.296Z,25.20
2019-02-19T12:55:47.075Z,24.97
2019-02-19T12:58:27.540Z,36.87
2019-02-19T13:01:08.367Z,22.63
2019-02-19T13:03:49.076Z,31.40
2019-02-19T13:06:29.749Z,27.43
2019-02-19T13:09:10.593Z,27.70
2019-02-19T13:11:51.070Z,26.17
2019-02-19T13:14:31.847Z,25.47
2019-02-19T13:17:12.626Z,24.43
2019-02-19T13:19:53.090Z,21.37
2019-02-19T13:22:33.667Z,26.67
2019-02-19T13:25:14.117Z,28.73
2019-02-19T13:27:54.926Z,24.10
2019-02-19T13:30:35.583Z,19.73
2019-02-19T13:33:16.155Z,18.40
2019-02-19T13:35:56.711Z,17.17
2019-02-19T13:38:37.310Z,19.03
2019-02-19T13:41:18.188Z,16.77
2019-02-19T13:43:59.540Z,19.30
2019-02-19T13:46:40.091Z,19.17
2019-02-19T13:49:20.577Z,19.30
2019-02-19T13:55:18.590Z,18.50
2019-02-19T13:57:59.479Z,16.93
2019-02-19T14:00:42.014Z,20.30
2019-02-19T14:03:23.422Z,20.47
2019-02-19T14:06:04.246Z,20.33
2019-02-19T14:08:44.818Z,17.87
2019-02-19T14:11:25.635Z,15.07
2019-02-19T14:14:25.805Z,16.43
2019-02-19T14:17:19.484Z,15.93
2019-02-19T14:20:11.514Z,16.63
2019-02-19T14:22:57.756Z,18.47
2019-02-19T14:25:51.290Z,17.20
2019-02-19T14:28:50.745Z,16.80
2019-02-19T14:31:50.373Z,22.43
2019-02-19T14:34:49.767Z,20.47
2019-02-19T14:37:49.479Z,17.47
2019-02-19T14:40:49.751Z,15.40
2019-02-19T14:43:49.753Z,20.47
2019-02-19T14:46:40.683Z,19.53
2019-02-19T14:49:47.216Z,16.20
2019-02-19T14:52:37.442Z,13.97
2019-02-19T14:55:36.855Z,15.17
2019-02-19T14:58:28.659Z,16.23
2019-02-19T15:01:30.270Z,13.97
2019-02-19T15:04:30.512Z,13.00
2019-02-19T15:07:30.090Z,23.30
2019-02-19T15:10:23.121Z,13.80
2019-02-19T15:13:23.262Z,12.87
2019-02-19T15:16:23.694Z,13.20
2019-02-19T15:19:26.991Z,13.10
2019-02-19T15:22:27.397Z,13.67
2019-02-19T15:25:27.646Z,13.93
2019-02-19T15:28:27.991Z,13.30
2019-02-19T15:31:30.871Z,21.13
2019-02-19T15:34:30.865Z,13.20
2019-02-19T15:37:30.593Z,15.50
2019-02-19T15:40:30.116Z,14.27
2019-02-19T15:43:29.898Z,13.33
2019-02-19T15:46:35.957Z,14.80
2019-02-19T15:49:35.336Z,12.10
2019-02-19T15:52:35.561Z,13.13
2019-02-19T15:55:41.140Z,16.90
2019-02-19T15:58:40.956Z,14.63
2019-02-19T16:04:40.563Z,12.53
2019-02-19T16:07:31.290Z,12.83
2019-02-19T16:10:26.222Z,10.23
2019-02-19T16:13:11.497Z,10.37
2019-02-19T16:16:10.908Z,8.60
2019-02-19T16:19:00.185Z,8.20
2019-02-19T16:22:06.135Z,9.00
2019-02-19T16:25:05.875Z,12.97
2019-02-19T16:28:06.094Z,8.37
2019-02-19T16:31:05.727Z,10.93
2019-02-19T16:34:06.107Z,10.57
2019-02-19T16:36:55.797Z,7.77
2019-02-19T16:39:55.841Z,14.30
2019-02-19T16:42:58.879Z,8.63
2019-02-19T16:45:59.022Z,7.33
2019-02-19T16:48:58.675Z,7.47
2019-02-19T16:51:49.974Z,8.17
2019-02-19T16:54:38.421Z,7.63
2019-02-19T16:57:38.402Z,9.93
2019-02-19T17:00:23.947Z,14.30
2019-02-19T17:03:11.618Z,11.40
2019-02-19T17:06:17.129Z,14.03
2019-02-19T17:09:11.294Z,10.33
2019-02-19T17:12:14.414Z,13.03
2019-02-19T17:15:17.282Z,10.50
2019-02-19T17:18:11.898Z,14.00
2019-02-19T17:21:11.847Z,7.87
2019-02-19T17:24:11.240Z,15.23
2019-02-19T17:27:10.763Z,11.30
2019-02-19T17:30:10.360Z,11.53
2019-02-19T17:33:01.540Z,14.07
2019-02-19T17:36:04.475Z,9.00
2019-02-19T17:38:51.585Z,8.00
2019-02-19T17:41:43.571Z,8.77
2019-02-19T17:44:36.025Z,8.73
2019-02-19T17:47:23.251Z,9.27
2019-02-19T17:50:13.034Z,12.00
2019-02-19T17:53:14.887Z,12.87
2019-02-19T17:56:22.966Z,13.70
2019-02-19T17:59:30.039Z,12.73
2019-02-19T18:02:37.098Z,10.47
2019-02-19T18:05:44.168Z,11.73
2019-02-19T18:08:51.218Z,10.77
2019-02-19T18:11:58.298Z,9.83
2019-02-19T18:15:05.383Z,13.53
2019-02-19T18:18:12.774Z,13.20
2019-02-19T18:21:01.098Z,11.60
2019-02-19T18:23:49.076Z,12.03
2019-02-19T18:26:37.073Z,11.67
2019-02-19T18:29:25.076Z,14.73
2019-02-19T18:32:13.049Z,13.93
2019-02-19T18:35:01.357Z,14.13
2019-02-19T18:37:49.397Z,14.43
2019-02-19T18:40:37.426Z,13.47
2019-02-19T18:43:25.437Z,9.03
2019-02-19T18:46:13.686Z,10.97
2019-02-19T18:49:01.686Z,14.17
2019-02-19T18:51:49.799Z,11.90
2019-02-19T18:54:38.042Z,11.50
2019-02-19T19:00:33.137Z,14.47
2019-02-19T19:06:28.223Z,14.13
2019-02-19T19:09:16.251Z,8.93
2019-02-19T19:12:04.255Z,13.90
2019-02-19T19:14:52.576Z,11.20
2019-02-19T19:17:40.555Z,8.77
2019-02-19T19:20:28.574Z,11.63
2019-02-19T19:23:09.737Z,12.03
2019-02-19T19:25:50.114Z,9.47
2019-02-19T19:28:30.975Z,14.10
2019-02-19T19:31:11.694Z,9.63
2019-02-19T19:33:52.536Z,9.63
2019-02-19T19:36:33.565Z,8.17
2019-02-19T19:39:14.722Z,9.83
2019-02-19T19:41:55.140Z,9.40
2019-02-19T19:44:36.221Z,13.23
2019-02-19T19:47:16.917Z,8.70
2019-02-19T19:49:57.804Z,10.70
2019-02-19T19:52:39.020Z,11.53
2019-02-19T19:55:19.651Z,10.53
2019-02-19T19:58:00.659Z,11.07
2019-02-19T20:00:41.433Z,10.10
2019-02-19T20:03:22.197Z,7.67
2019-02-19T20:06:02.964Z,8.40
2019-02-19T20:08:43.942Z,5.90
2019-02-19T20:11:24.282Z,5.27
2019-02-19T20:14:04.854Z,7.30
2019-02-19T20:16:45.579Z,6.60
2019-02-19T20:19:26.359Z,6.73
2019-02-19T20:22:07.060Z,7.40
2019-02-19T20:24:47.722Z,7.47
2019-02-19T20:27:28.681Z,8.37
2019-02-19T20:30:09.275Z,13.33
2019-02-19T20:32:50.098Z,6.80
2019-02-19T20:35:30.743Z,10.70
2019-02-19T20:38:11.458Z,9.17
2019-02-19T20:40:52.709Z,12.63
2019-02-19T20:43:33.736Z,9.80
2019-02-19T20:46:14.463Z,12.73
2019-02-19T20:48:55.237Z,12.23
2019-02-19T20:51:36.669Z,14.50
2019-02-19T20:54:17.872Z,11.20
2019-02-19T20:56:58.899Z,17.67
2019-02-19T20:59:39.459Z,12.03
2019-02-19T21:02:20.299Z,15.77
2019-02-19T21:05:00.980Z,18.47
2019-02-19T21:07:41.655Z,14.00
2019-02-19T21:10:22.366Z,15.07
2019-02-19T21:13:03.133Z,13.00
2019-02-19T21:15:44.012Z,14.00
2019-02-19T21:18:24.555Z,14.30
2019-02-19T21:21:05.253Z,13.50
2019-02-19T21:23:46.273Z,13.00
2019-02-19T21:26:26.937Z,14.50
2019-02-19T21:29:07.335Z,14.37
2019-02-19T21:31:48.534Z,13.20
2019-02-19T21:34:29.506Z,17.40
2019-02-19T21:37:10.302Z,15.17
2019-02-19T21:39:51.090Z,16.10
2019-02-19T21:42:31.793Z,16.50
2019-02-19T21:45:12.858Z,15.20
2019-02-19T21:47:53.602Z,16.50
2019-02-19T21:50:34.831Z,12.90
2019-02-19T21:53:15.572Z,15.80
2019-02-19T21:55:56.177Z,11.57
2019-02-19T21:58:37.127Z,11.10
2019-02-19T22:01:17.966Z,13.97
2019-02-19T22:03:58.837Z,11.83
2019-02-19T22:06:39.604Z,12.00
2019-02-19T22:09:20.208Z,12.83
2019-02-19T22:12:00.942Z,13.37
2019-02-19T22:14:42.026Z,13.77
2019-02-19T22:17:22.738Z,12.70
2019-02-19T22:20:03.780Z,13.20
2019-02-19T22:22:44.897Z,18.37
2019-02-19T22:25:25.866Z,19.77
2019-02-19T22:28:06.464Z,14.07
2019-02-19T22:30:47.274Z,15.90
2019-02-19T22:33:28.083Z,16.53
2019-02-19T22:36:08.907Z,12.70
2019-02-19T22:38:49.395Z,13.80
2019-02-19T22:41:30.285Z,13.50
2019-02-19T22:44:11.550Z,14.03
2019-02-19T22:46:52.653Z,15.60
2019-02-19T22:49:33.996Z,17.10
2019-02-19T22:52:14.332Z,16.73
2019-02-19T22:55:20.074Z,17.10
2019-02-19T22:58:01.294Z,16.23
2019-02-19T23:01:01.086Z,14.50
2019-02-19T23:03:42.362Z,9.50
2019-02-19T23:06:23.578Z,10.00
2019-02-19T23:09:05.822Z,14.23
2019-02-19T23:11:46.695Z,9.23
2019-02-19T23:14:27.602Z,12.40
2019-02-19T23:17:08.577Z,15.87
2019-02-19T23:19:49.072Z,10.23
2019-02-19T23:22:29.713Z,16.33
2019-02-19T23:25:10.362Z,11.33
2019-02-19T23:27:50.825Z,11.33
2019-02-19T23:30:33.624Z,15.47
2019-02-19T23:33:14.114Z,10.03
2019-02-19T23:35:59.696Z,13.10
2019-02-19T23:38:40.376Z,14.73
2019-02-19T23:41:21.382Z,15.43
2019-02-19T23:44:02.248Z,14.43
2019-02-19T23:46:44.080Z,9.00
2019-02-19T23:49:25.342Z,15.43
2019-02-19T23:52:06.536Z,13.77
2019-02-19T23:54:47.207Z,10.33
2019-02-19T23:57:27.590Z,12.00
